Terminal Aerodrome Forecast
Issued by NWS Austin/San Antonio, TX

Home | Current Version | Previous Version | Text Only | Print | Product List | Glossary On
Versions: 1 2 3 4 5 6 7 8 9 10 11 12 13 14 15 16 17 18 19
703
FTUS44 KEWX 130530
TAFAUS
TAF
KAUS 130530Z 1306/1412 VRB03KT P6SM FEW250
     FM131600 21010KT P6SM SCT250
     FM140000 23004KT P6SM SCT150
     FM140900 30006KT P6SM SCT150=

USA.gov is the U.S. government's official web portal to all federal, state and local government web resources and services.